createdAt,value
2023-02-14T00:01:27.913Z,13.37
2023-02-14T00:04:04.005Z,12.67
2023-02-14T00:06:37.077Z,12.83
2023-02-14T00:09:07.977Z,12.63
2023-02-14T00:11:35.491Z,11.83
2023-02-14T00:14:38.741Z,15.87
2023-02-14T00:17:05.820Z,12.23
2023-02-14T00:19:37.025Z,11.40
2023-02-14T00:22:07.341Z,12.53
2023-02-14T00:24:37.038Z,12.07
2023-02-14T00:27:04.130Z,11.83
2023-02-14T00:29:33.713Z,9.83
2023-02-14T00:32:03.535Z,12.27
2023-02-14T00:34:30.677Z,11.50
2023-02-14T00:37:01.272Z,12.57
2023-02-14T00:39:34.857Z,12.67
2023-02-14T00:42:04.221Z,10.77
2023-02-14T00:44:36.692Z,10.17
2023-02-14T00:47:03.945Z,11.37
2023-02-14T00:49:37.584Z,10.87
2023-02-14T00:52:07.955Z,12.83
2023-02-14T00:54:44.910Z,10.83
2023-02-14T00:57:12.130Z,12.23
2023-02-14T00:59:49.100Z,11.77
2023-02-14T01:02:19.692Z,10.43
2023-02-14T01:07:33.741Z,10.57
2023-02-14T01:10:00.963Z,11.23
2023-02-14T01:12:30.722Z,10.67
2023-02-14T01:15:07.962Z,12.60
2023-02-14T01:17:37.417Z,11.90
2023-02-14T01:20:11.807Z,11.57
2023-02-14T01:22:39.878Z,12.57
2023-02-14T01:25:08.378Z,10.67
2023-02-14T01:27:37.961Z,12.07
2023-02-14T01:30:06.173Z,10.23
2023-02-14T01:32:34.146Z,11.33
2023-02-14T01:35:06.046Z,10.67
2023-02-14T01:37:34.522Z,11.73
2023-02-14T01:40:09.008Z,11.37
2023-02-14T01:42:46.045Z,10.20
2023-02-14T01:45:25.933Z,10.87
2023-02-14T01:48:00.715Z,11.57
2023-02-14T01:50:35.582Z,10.90
2023-02-14T01:53:17.344Z,11.77
2023-02-14T01:55:51.374Z,11.87
2023-02-14T01:58:29.428Z,10.70
2023-02-14T02:01:00.141Z,11.13
2023-02-14T02:03:52.424Z,12.90
2023-02-14T02:06:38.068Z,10.67
2023-02-14T02:09:15.466Z,12.17
2023-02-14T02:11:44.790Z,11.83
2023-02-14T02:14:24.732Z,12.57
2023-02-14T02:17:21.828Z,12.07
2023-02-14T02:20:25.286Z,11.40
2023-02-14T02:23:32.071Z,11.90
2023-02-14T02:26:11.025Z,11.03
2023-02-14T02:29:17.864Z,10.63
2023-02-14T02:32:05.882Z,12.30
2023-02-14T02:35:13.364Z,12.53
2023-02-14T02:38:12.975Z,10.17
2023-02-14T02:41:39.272Z,10.80
2023-02-14T02:44:55.666Z,9.03
2023-02-14T02:47:31.256Z,10.33
2023-02-14T02:51:24.798Z,10.30
2023-02-14T02:54:30.248Z,11.57
2023-02-14T02:57:50.667Z,9.40
2023-02-14T03:00:29.345Z,10.33
2023-02-14T03:03:36.688Z,10.47
2023-02-14T03:06:05.568Z,9.13
2023-02-14T03:08:34.810Z,11.80
2023-02-14T03:11:23.447Z,10.47
2023-02-14T03:14:20.577Z,9.40
2023-02-14T03:17:00.649Z,9.67
2023-02-14T03:20:17.497Z,11.23
2023-02-14T03:23:21.410Z,10.17
2023-02-14T03:26:49.494Z,9.97
2023-02-14T03:30:10.717Z,10.90
2023-02-14T03:32:56.951Z,10.70
2023-02-14T03:36:13.424Z,11.27
2023-02-14T03:38:57.688Z,10.83
2023-02-14T03:41:35.157Z,11.90
2023-02-14T03:44:14.837Z,12.53
2023-02-14T03:47:05.315Z,12.17
2023-02-14T03:49:39.492Z,11.70
2023-02-14T03:52:18.924Z,12.60
2023-02-14T03:54:52.452Z,11.97
2023-02-14T03:57:55.461Z,11.50
2023-02-14T04:00:26.107Z,11.10
2023-02-14T04:03:15.192Z,11.50
2023-02-14T04:05:47.059Z,11.80
2023-02-14T04:08:34.385Z,11.67
2023-02-14T04:11:04.233Z,11.77
2023-02-14T04:13:32.728Z,12.03
2023-02-14T04:16:02.246Z,11.27
2023-02-14T04:18:50.330Z,12.07
2023-02-14T04:21:18.827Z,11.63
2023-02-14T04:23:47.407Z,10.93
2023-02-14T04:26:14.440Z,12.93
2023-02-14T04:28:44.126Z,11.87
2023-02-14T04:31:12.704Z,11.17
2023-02-14T04:33:44.645Z,9.50
2023-02-14T04:36:13.292Z,11.07
2023-02-14T04:38:41.750Z,12.63
2023-02-14T04:41:10.604Z,11.00
2023-02-14T04:43:39.167Z,11.20
2023-02-14T04:46:06.199Z,10.70
2023-02-14T04:48:37.143Z,12.40
2023-02-14T04:51:07.305Z,11.37
2023-02-14T04:53:41.071Z,9.67
2023-02-14T04:56:17.764Z,8.50
2023-02-14T04:58:46.684Z,7.53
2023-02-14T05:01:15.212Z,7.47
2023-02-14T05:03:52.858Z,7.70
2023-02-14T05:06:20.164Z,8.03
2023-02-14T05:08:51.310Z,7.90
2023-02-14T05:11:21.323Z,7.63
2023-02-14T05:13:49.840Z,8.47
2023-02-14T05:16:18.971Z,7.50
2023-02-14T05:18:47.752Z,7.80
2023-02-14T05:21:16.593Z,7.70
2023-02-14T05:23:45.365Z,9.10
2023-02-14T05:26:25.081Z,7.60
2023-02-14T05:28:52.262Z,8.13
2023-02-14T05:31:23.432Z,7.17
2023-02-14T05:33:52.896Z,8.43
2023-02-14T05:36:28.623Z,7.70
2023-02-14T05:39:04.902Z,7.57
2023-02-14T05:41:32.700Z,8.13
2023-02-14T05:44:02.546Z,8.80
2023-02-14T05:46:38.902Z,8.30
2023-02-14T05:49:06.312Z,8.77
2023-02-14T05:51:43.283Z,8.67
2023-02-14T05:54:13.746Z,9.00
2023-02-14T05:56:41.929Z,9.30
2023-02-14T05:59:10.087Z,8.63
2023-02-14T06:01:42.017Z,9.57
2023-02-14T06:04:09.346Z,9.57
2023-02-14T06:06:38.803Z,9.30
2023-02-14T06:09:08.859Z,9.63
2023-02-14T06:11:39.836Z,10.60
2023-02-14T06:14:10.591Z,11.70
2023-02-14T06:16:39.586Z,12.43
2023-02-14T06:19:07.465Z,11.30
2023-02-14T06:21:35.918Z,9.97
2023-02-14T06:24:04.571Z,9.83
2023-02-14T06:26:33.895Z,9.90
2023-02-14T06:29:04.587Z,9.93
2023-02-14T06:31:32.965Z,9.40
2023-02-14T06:34:02.029Z,9.87
2023-02-14T06:36:29.163Z,9.80
2023-02-14T06:38:57.576Z,8.90
2023-02-14T06:41:25.669Z,8.73
2023-02-14T06:46:44.785Z,9.23
2023-02-14T06:49:26.950Z,6.67
2023-02-14T06:51:55.477Z,6.83
2023-02-14T06:54:23.815Z,6.67
2023-02-14T06:56:52.370Z,7.23
2023-02-14T06:59:22.864Z,9.63
2023-02-14T07:01:53.905Z,11.70
2023-02-14T07:04:23.069Z,11.63
2023-02-14T07:07:00.113Z,12.53
2023-02-14T07:09:31.154Z,11.10
2023-02-14T07:12:01.577Z,11.33
2023-02-14T07:14:33.346Z,11.83
2023-02-14T07:17:04.118Z,11.97
2023-02-14T07:19:31.706Z,11.77
2023-02-14T07:22:08.453Z,12.33
2023-02-14T07:24:37.797Z,12.10
2023-02-14T07:27:07.421Z,12.50
2023-02-14T07:29:37.542Z,11.37
2023-02-14T07:32:08.129Z,11.50
2023-02-14T07:34:38.056Z,12.30
2023-02-14T07:37:08.716Z,11.40
2023-02-14T07:39:37.563Z,11.10
2023-02-14T07:42:09.172Z,13.57
2023-02-14T07:44:43.029Z,12.63
2023-02-14T07:47:16.723Z,10.90
2023-02-14T07:49:45.279Z,9.90
2023-02-14T07:52:13.850Z,10.80
2023-02-14T07:54:41.958Z,10.57
2023-02-14T07:57:11.960Z,10.90
2023-02-14T07:59:45.422Z,10.13
2023-02-14T08:02:25.351Z,9.87
2023-02-14T08:04:56.189Z,9.73
2023-02-14T08:07:25.846Z,11.23
2023-02-14T08:09:52.894Z,10.57
2023-02-14T08:12:42.650Z,9.73
2023-02-14T08:15:32.129Z,10.67
2023-02-14T08:18:00.484Z,11.13
2023-02-14T08:20:28.968Z,11.17
2023-02-14T08:22:58.543Z,11.70
2023-02-14T08:25:31.851Z,10.50
2023-02-14T08:28:05.271Z,10.30
2023-02-14T08:30:33.015Z,12.53
2023-02-14T08:33:04.583Z,14.03
2023-02-14T08:35:33.118Z,15.57
2023-02-14T08:38:01.766Z,16.30
2023-02-14T08:40:31.868Z,17.13
2023-02-14T08:43:02.209Z,16.20
2023-02-14T08:45:32.487Z,15.30
2023-02-14T08:48:09.656Z,14.60
2023-02-14T08:50:40.503Z,16.10
2023-02-14T08:53:13.179Z,14.67
2023-02-14T08:55:48.649Z,13.23
2023-02-14T08:58:17.354Z,14.47
2023-02-14T09:00:46.201Z,14.93
2023-02-14T09:03:15.734Z,15.23
2023-02-14T09:05:45.125Z,14.37
2023-02-14T09:08:17.149Z,14.67
2023-02-14T09:10:45.289Z,15.33
2023-02-14T09:13:16.832Z,14.50
2023-02-14T09:15:44.922Z,14.13
2023-02-14T09:18:14.257Z,15.77
2023-02-14T09:20:46.196Z,15.13
2023-02-14T09:23:14.738Z,13.20
2023-02-14T09:25:44.481Z,15.27
2023-02-14T09:28:12.808Z,14.37
2023-02-14T09:30:43.286Z,14.43
2023-02-14T09:33:11.631Z,13.97
2023-02-14T09:35:42.317Z,12.90
2023-02-14T09:38:12.444Z,13.50
2023-02-14T09:40:40.349Z,12.37
2023-02-14T09:43:42.431Z,13.13
2023-02-14T09:46:18.120Z,13.07
2023-02-14T09:48:50.668Z,11.97
2023-02-14T09:51:26.868Z,13.40
2023-02-14T09:54:31.837Z,12.17
2023-02-14T09:57:16.343Z,12.30
2023-02-14T10:00:30.858Z,12.00
2023-02-14T10:03:17.691Z,11.77
2023-02-14T10:06:02.171Z,11.83
2023-02-14T10:09:14.697Z,13.20
2023-02-14T10:11:49.341Z,14.23
2023-02-14T10:14:42.024Z,11.20
2023-02-14T10:17:22.561Z,14.27
2023-02-14T10:20:02.776Z,13.77
2023-02-14T10:23:01.317Z,13.77
2023-02-14T10:26:06.785Z,12.83
2023-02-14T10:28:44.489Z,11.30
2023-02-14T10:31:42.079Z,11.40
2023-02-14T10:34:44.979Z,10.63
2023-02-14T10:37:43.340Z,11.77
2023-02-14T10:40:35.820Z,11.90
2023-02-14T10:43:46.823Z,11.30
2023-02-14T10:46:49.272Z,11.13
2023-02-14T10:49:50.227Z,10.40
2023-02-14T10:52:47.093Z,9.63
2023-02-14T10:55:49.847Z,11.87
2023-02-14T10:58:34.272Z,10.60
2023-02-14T11:01:15.586Z,12.43
2023-02-14T11:04:09.546Z,9.03
2023-02-14T11:06:38.762Z,12.07
2023-02-14T11:09:07.456Z,11.57
2023-02-14T11:11:39.088Z,11.93
2023-02-14T11:14:33.727Z,12.10
2023-02-14T11:17:34.731Z,11.57
2023-02-14T11:20:07.439Z,10.70
2023-02-14T11:22:35.603Z,9.77
2023-02-14T11:25:24.785Z,11.50
2023-02-14T11:28:19.943Z,10.47
2023-02-14T11:30:50.714Z,10.43
2023-02-14T11:33:50.128Z,10.87
2023-02-14T11:36:18.555Z,11.60
2023-02-14T11:39:31.092Z,10.33
2023-02-14T11:42:12.987Z,11.87
2023-02-14T11:44:56.486Z,12.20
2023-02-14T11:47:34.309Z,14.17
2023-02-14T11:50:13.806Z,12.77
2023-02-14T11:53:04.893Z,13.03
2023-02-14T11:55:38.133Z,12.07
2023-02-14T11:58:31.151Z,11.43
2023-02-14T12:01:02.344Z,14.00
2023-02-14T12:03:55.177Z,11.03
2023-02-14T12:06:39.417Z,11.80
2023-02-14T12:09:29.526Z,13.60
2023-02-14T12:12:18.409Z,12.13
2023-02-14T12:14:45.952Z,12.37
2023-02-14T12:17:31.277Z,12.37
2023-02-14T12:20:26.474Z,9.83
2023-02-14T12:23:40.708Z,13.07
2023-02-14T12:26:42.090Z,13.03
2023-02-14T12:29:37.708Z,12.57
2023-02-14T12:32:29.270Z,12.30
2023-02-14T12:35:17.999Z,13.07
2023-02-14T12:38:12.325Z,11.80
2023-02-14T12:41:33.217Z,13.67
2023-02-14T12:44:43.530Z,11.30
2023-02-14T12:47:23.068Z,12.93
2023-02-14T12:50:00.673Z,13.20
2023-02-14T12:53:08.104Z,11.20
2023-02-14T12:56:08.074Z,11.40
2023-02-14T12:59:12.792Z,12.37
2023-02-14T13:02:11.797Z,12.17
2023-02-14T13:04:49.634Z,12.63
2023-02-14T13:07:58.077Z,12.80
2023-02-14T13:11:02.223Z,10.57
2023-02-14T13:14:05.071Z,12.17
2023-02-14T13:17:14.048Z,10.80
2023-02-14T13:20:07.090Z,12.10
2023-02-14T13:22:37.970Z,13.63
2023-02-14T13:25:38.738Z,9.60
2023-02-14T13:28:15.476Z,12.63
2023-02-14T13:30:44.223Z,11.60
2023-02-14T13:34:05.406Z,9.97
2023-02-14T13:36:48.590Z,12.43
2023-02-14T13:39:34.315Z,12.60
2023-02-14T13:42:06.071Z,12.43
2023-02-14T13:44:56.305Z,10.37
2023-02-14T13:47:28.119Z,11.17
2023-02-14T13:50:07.833Z,12.63
2023-02-14T13:52:57.260Z,10.43
2023-02-14T13:55:36.530Z,11.17
2023-02-14T13:58:21.846Z,9.60
2023-02-14T14:00:59.144Z,11.13
2023-02-14T14:03:32.617Z,10.57
2023-02-14T14:06:16.586Z,11.47
2023-02-14T14:08:50.379Z,12.10
2023-02-14T14:11:39.005Z,11.73
2023-02-14T14:14:28.683Z,12.93
2023-02-14T14:17:11.258Z,11.43
2023-02-14T14:19:47.044Z,11.80
2023-02-14T14:22:23.209Z,12.27
2023-02-14T14:25:04.083Z,12.77
2023-02-14T14:27:40.554Z,10.27
2023-02-14T14:30:23.434Z,11.03
2023-02-14T14:32:54.540Z,13.10
2023-02-14T14:35:29.131Z,12.87
2023-02-14T14:38:01.490Z,12.43
2023-02-14T14:40:51.632Z,10.80
2023-02-14T14:43:29.358Z,12.63
2023-02-14T14:46:01.010Z,10.70
2023-02-14T14:48:58.250Z,12.50
2023-02-14T14:51:37.492Z,12.43
2023-02-14T14:54:22.629Z,10.70
2023-02-14T14:57:04.145Z,11.90
2023-02-14T14:59:41.352Z,12.77
2023-02-14T15:02:34.750Z,11.63
2023-02-14T15:05:24.729Z,10.40
2023-02-14T15:08:06.393Z,11.50
2023-02-14T15:10:46.574Z,11.17
2023-02-14T15:13:35.304Z,10.63
2023-02-14T15:16:05.729Z,10.33
2023-02-14T15:18:36.641Z,10.33
2023-02-14T15:21:11.323Z,9.27
2023-02-14T15:23:48.730Z,8.93
2023-02-14T15:26:42.155Z,10.40
2023-02-14T15:29:29.299Z,11.33
2023-02-14T15:32:04.487Z,8.00
2023-02-14T15:34:36.590Z,11.30
2023-02-14T15:37:15.554Z,11.30
2023-02-14T15:39:49.324Z,9.77
2023-02-14T15:42:33.558Z,10.53
2023-02-14T15:45:28.572Z,11.27
2023-02-14T15:48:11.614Z,11.60
2023-02-14T15:50:47.999Z,9.40
2023-02-14T15:53:54.859Z,10.90
2023-02-14T15:56:41.609Z,9.90
2023-02-14T15:59:27.800Z,9.77
2023-02-14T16:02:38.237Z,10.63
2023-02-14T16:05:28.285Z,9.27
2023-02-14T16:08:05.157Z,10.23
2023-02-14T16:10:35.909Z,11.57
2023-02-14T16:13:27.684Z,11.20
2023-02-14T16:16:01.734Z,11.87
2023-02-14T16:18:52.226Z,12.50
2023-02-14T16:21:33.179Z,10.73
2023-02-14T16:24:14.346Z,12.40
2023-02-14T16:26:51.121Z,12.00
2023-02-14T16:29:21.989Z,11.43
2023-02-14T16:32:14.685Z,11.33
2023-02-14T16:34:44.526Z,11.70
2023-02-14T16:37:31.091Z,12.77
2023-02-14T16:40:03.396Z,12.87
2023-02-14T16:42:31.572Z,10.80
2023-02-14T16:45:00.454Z,11.70
2023-02-14T16:47:27.967Z,11.87
2023-02-14T16:49:56.741Z,12.40
2023-02-14T16:52:27.391Z,12.00
2023-02-14T16:54:54.926Z,11.17
2023-02-14T16:57:35.051Z,12.33
2023-02-14T17:00:07.741Z,17.73
2023-02-14T17:02:43.784Z,16.50
2023-02-14T17:05:13.545Z,16.00
2023-02-14T17:07:49.669Z,17.73
2023-02-14T17:10:20.911Z,34.17
2023-02-14T17:12:55.867Z,19.13
2023-02-14T17:15:25.750Z,12.33
2023-02-14T17:18:08.776Z,14.43
2023-02-14T17:20:37.673Z,13.67
2023-02-14T17:23:06.023Z,13.67
2023-02-14T17:25:43.743Z,14.43
2023-02-14T17:28:12.059Z,14.17
2023-02-14T17:30:41.900Z,14.40
2023-02-14T17:33:12.755Z,14.93
2023-02-14T17:35:48.308Z,15.23
2023-02-14T17:38:15.586Z,13.77
2023-02-14T17:40:44.425Z,13.10
2023-02-14T17:43:13.199Z,15.33
2023-02-14T17:45:41.553Z,15.97
2023-02-14T17:48:12.617Z,13.87
2023-02-14T17:50:41.290Z,13.40
2023-02-14T17:53:11.283Z,13.40
2023-02-14T17:55:39.607Z,13.67
2023-02-14T17:58:08.683Z,14.30
2023-02-14T18:00:36.911Z,13.83
2023-02-14T18:03:04.962Z,14.37
2023-02-14T18:05:36.195Z,14.80
2023-02-14T18:08:09.317Z,12.83
2023-02-14T18:10:39.672Z,12.50
2023-02-14T18:13:09.477Z,12.60
2023-02-14T18:15:37.667Z,13.07
2023-02-14T18:18:11.532Z,13.63
2023-02-14T18:20:44.437Z,13.20
2023-02-14T18:23:14.851Z,13.17
2023-02-14T18:25:55.767Z,12.13
2023-02-14T18:28:34.027Z,12.70
2023-02-14T18:31:11.129Z,13.70
2023-02-14T18:33:41.595Z,13.70
2023-02-14T18:36:17.880Z,15.17
2023-02-14T18:38:47.970Z,13.07
2023-02-14T18:41:22.277Z,15.10
2023-02-14T18:43:52.649Z,15.13
2023-02-14T18:46:24.776Z,16.37
2023-02-14T18:48:55.828Z,22.27
2023-02-14T18:51:31.577Z,21.27
2023-02-14T18:54:01.451Z,17.43
2023-02-14T18:56:35.524Z,16.60
2023-02-14T18:59:06.054Z,14.63
2023-02-14T19:01:40.063Z,15.87
2023-02-14T19:04:09.545Z,12.93
2023-02-14T19:06:37.002Z,15.10
2023-02-14T19:09:09.610Z,15.13
2023-02-14T19:11:40.360Z,15.23
2023-02-14T19:14:10.974Z,14.07
2023-02-14T19:16:45.661Z,14.60
2023-02-14T19:19:16.349Z,14.27
2023-02-14T19:21:43.897Z,14.80
2023-02-14T19:24:11.754Z,14.23
2023-02-14T19:26:42.896Z,15.23
2023-02-14T19:29:14.420Z,16.00
2023-02-14T19:31:48.642Z,13.80
2023-02-14T19:34:20.811Z,16.27
2023-02-14T19:37:02.667Z,18.37
2023-02-14T19:39:31.831Z,20.13
2023-02-14T19:42:00.605Z,18.00
2023-02-14T19:44:31.699Z,18.33
2023-02-14T19:47:12.537Z,19.37
2023-02-14T19:49:48.836Z,17.73
2023-02-14T19:52:26.380Z,17.20
2023-02-14T19:54:56.316Z,13.53
2023-02-14T19:57:32.734Z,18.30
2023-02-14T20:00:02.530Z,14.40
2023-02-14T20:02:29.850Z,16.80
2023-02-14T20:05:07.277Z,18.53
2023-02-14T20:07:46.770Z,17.70
2023-02-14T20:10:18.174Z,17.83
2023-02-14T20:12:47.652Z,17.83
2023-02-14T20:15:18.135Z,17.13
2023-02-14T20:17:45.383Z,17.93
2023-02-14T20:20:14.974Z,19.87
2023-02-14T20:22:42.703Z,17.17
2023-02-14T20:25:12.157Z,18.57
2023-02-14T20:27:39.381Z,17.73
2023-02-14T20:30:11.814Z,17.47
2023-02-14T20:32:39.515Z,17.47
2023-02-14T20:35:09.090Z,17.10
2023-02-14T20:37:37.569Z,18.33
2023-02-14T20:40:07.694Z,17.73
2023-02-14T20:42:38.168Z,18.53
2023-02-14T20:45:06.951Z,17.70
2023-02-14T20:47:35.512Z,20.13
2023-02-14T20:50:04.578Z,20.57
2023-02-14T20:52:33.012Z,19.10
2023-02-14T20:55:00.017Z,15.07
2023-02-14T20:57:29.540Z,18.13
2023-02-14T20:59:57.900Z,17.37
2023-02-14T21:02:26.508Z,19.33
2023-02-14T21:04:56.553Z,19.50
2023-02-14T21:07:26.470Z,15.83
2023-02-14T21:09:53.739Z,18.60
2023-02-14T21:12:21.019Z,17.53
2023-02-14T21:14:57.111Z,19.07
2023-02-14T21:17:26.101Z,19.20
2023-02-14T21:19:56.494Z,18.37
2023-02-14T21:22:23.455Z,18.57
2023-02-14T21:24:52.048Z,19.60
2023-02-14T21:27:20.731Z,19.30
2023-02-14T21:29:49.498Z,18.90
2023-02-14T21:32:18.457Z,19.70
2023-02-14T21:34:49.653Z,20.27
2023-02-14T21:37:20.310Z,18.40
2023-02-14T21:39:50.440Z,19.33
2023-02-14T21:42:18.985Z,18.37
2023-02-14T21:45:07.240Z,20.73
2023-02-14T21:47:39.898Z,19.97
2023-02-14T21:50:25.990Z,18.80
2023-02-14T21:52:54.134Z,21.47
2023-02-14T21:55:21.328Z,23.30
2023-02-14T21:57:50.836Z,23.13
2023-02-14T22:00:21.946Z,17.17
2023-02-14T22:02:51.357Z,15.30
2023-02-14T22:05:18.936Z,15.10
2023-02-14T22:07:46.014Z,14.93
2023-02-14T22:10:17.253Z,14.63
2023-02-14T22:12:47.682Z,16.47
2023-02-14T22:15:16.107Z,16.73
2023-02-14T22:17:44.426Z,16.67
2023-02-14T22:20:11.781Z,10.13
2023-02-14T22:22:39.854Z,13.63
2023-02-14T22:25:08.611Z,19.23
2023-02-14T22:27:44.038Z,17.10
2023-02-14T22:30:21.384Z,19.57
2023-02-14T22:33:01.454Z,20.90
2023-02-14T22:35:29.828Z,19.50
2023-02-14T22:38:00.710Z,22.80
2023-02-14T22:40:27.975Z,22.10
2023-02-14T22:42:59.247Z,21.07
2023-02-14T22:45:27.850Z,22.30
2023-02-14T22:47:59.960Z,18.77
2023-02-14T22:50:31.020Z,17.53
2023-02-14T22:52:59.811Z,15.10
2023-02-14T22:55:27.088Z,14.87
2023-02-14T22:57:56.731Z,14.60
2023-02-14T23:00:27.696Z,15.13
2023-02-14T23:02:54.727Z,15.07
2023-02-14T23:05:23.861Z,15.03
2023-02-14T23:07:53.574Z,15.17
2023-02-14T23:10:21.826Z,15.57
2023-02-14T23:13:09.561Z,15.43
2023-02-14T23:15:56.890Z,16.17
2023-02-14T23:18:44.173Z,10.53
2023-02-14T23:21:33.709Z,11.13
2023-02-14T23:30:37.818Z,17.30
2023-02-14T23:33:06.312Z,20.33
2023-02-14T23:35:37.632Z,25.17
2023-02-14T23:38:08.094Z,24.87
2023-02-14T23:40:56.946Z,23.83
2023-02-14T23:43:25.907Z,22.77
2023-02-14T23:46:01.708Z,24.57
2023-02-14T23:48:32.382Z,21.27
2023-02-14T23:51:03.322Z,20.97
2023-02-14T23:53:39.813Z,24.53
2023-02-14T23:56:10.105Z,21.97
2023-02-14T23:58:43.103Z,19.43
